createdAt,value
2023-02-26T00:01:22.683Z,0.75
2023-02-26T00:03:55.503Z,0.78
2023-02-26T00:06:24.627Z,0.84
2023-02-26T00:08:51.309Z,0.74
2023-02-26T00:11:18.605Z,0.79
2023-02-26T00:13:46.016Z,0.71
2023-02-26T00:16:24.501Z,0.73
2023-02-26T00:18:51.139Z,0.75
2023-02-26T00:21:24.126Z,0.72
2023-02-26T00:23:52.178Z,0.68
2023-02-26T00:26:18.912Z,0.66
2023-02-26T00:28:46.507Z,0.62
2023-02-26T00:31:15.488Z,0.62
2023-02-26T00:33:44.279Z,0.61
2023-02-26T00:36:37.667Z,0.74
2023-02-26T00:39:24.486Z,0.96
2023-02-26T00:41:51.178Z,1.03
2023-02-26T00:44:18.939Z,1.13
2023-02-26T00:47:27.721Z,1.17
2023-02-26T00:50:04.631Z,1.23
2023-02-26T00:52:36.617Z,1.26
2023-02-26T00:55:03.379Z,1.36
2023-02-26T00:57:29.842Z,1.42
2023-02-26T00:59:56.348Z,1.33
2023-02-26T01:02:23.001Z,1.37
2023-02-26T01:04:49.781Z,1.36
2023-02-26T01:07:22.378Z,1.25
2023-02-26T01:09:49.139Z,1.21
2023-02-26T01:12:15.729Z,1.20
2023-02-26T01:14:42.372Z,1.18
2023-02-26T01:17:36.122Z,1.15
2023-02-26T01:20:13.677Z,1.18
2023-02-26T01:23:13.784Z,1.15
2023-02-26T01:25:47.908Z,1.19
2023-02-26T01:28:14.993Z,1.18
2023-02-26T01:30:42.243Z,1.24
2023-02-26T01:33:27.922Z,1.17
2023-02-26T01:36:09.240Z,1.13
2023-02-26T01:39:04.851Z,1.11
2023-02-26T01:41:52.301Z,0.96
2023-02-26T01:44:56.798Z,0.86
2023-02-26T01:47:39.305Z,0.83
2023-02-26T01:50:14.090Z,0.81
2023-02-26T01:52:49.533Z,0.81
2023-02-26T01:55:20.758Z,0.80
2023-02-26T01:57:48.876Z,0.82
2023-02-26T02:00:16.772Z,0.79
2023-02-26T02:02:43.560Z,0.71
2023-02-26T02:05:21.430Z,0.76
2023-02-26T02:07:48.062Z,0.76
2023-02-26T02:10:14.631Z,0.80
2023-02-26T02:13:24.411Z,0.72
2023-02-26T02:15:56.750Z,0.60
2023-02-26T02:18:38.765Z,0.52
2023-02-26T02:21:36.092Z,0.51
2023-02-26T02:24:14.500Z,0.51
2023-02-26T02:27:10.391Z,0.55
2023-02-26T02:30:15.789Z,0.47
2023-02-26T02:32:51.027Z,0.42
2023-02-26T02:35:25.377Z,0.46
2023-02-26T02:38:04.479Z,0.38
2023-02-26T02:40:39.251Z,0.45
2023-02-26T02:43:13.895Z,0.35
2023-02-26T02:46:05.336Z,0.34
2023-02-26T02:48:37.969Z,0.23
2023-02-26T02:51:10.770Z,0.23
2023-02-26T02:53:44.716Z,0.22
2023-02-26T02:56:26.090Z,0.14
2023-02-26T02:59:01.113Z,0.20
2023-02-26T03:01:28.434Z,0.12
2023-02-26T03:04:10.384Z,0.17
2023-02-26T03:06:37.721Z,0.11
2023-02-26T03:09:06.549Z,0.06
2023-02-26T03:11:34.551Z,0.09
2023-02-26T03:14:02.148Z,0.01
2023-02-26T03:17:06.650Z,0.02
2023-02-26T03:19:41.531Z,-0.03
2023-02-26T03:22:28.137Z,-0.06
2023-02-26T03:25:21.113Z,-0.03
2023-02-26T03:28:07.865Z,-0.05
2023-02-26T03:30:40.481Z,0.02
2023-02-26T03:33:24.605Z,0.00
2023-02-26T03:35:58.002Z,-0.05
2023-02-26T03:38:36.496Z,-0.02
2023-02-26T03:41:14.271Z,-0.03
2023-02-26T03:43:57.094Z,0.06
2023-02-26T03:46:29.574Z,0.13
2023-02-26T03:49:00.993Z,0.05
2023-02-26T03:51:28.829Z,0.00
2023-02-26T03:54:21.913Z,-0.07
2023-02-26T03:56:50.141Z,-0.14
2023-02-26T03:59:17.724Z,-0.16
2023-02-26T04:01:49.870Z,-0.14
2023-02-26T04:04:23.472Z,-0.17
2023-02-26T04:06:50.511Z,-0.21
2023-02-26T04:09:17.178Z,-0.17
2023-02-26T04:11:44.166Z,-0.27
2023-02-26T04:14:10.863Z,-0.27
2023-02-26T04:16:37.308Z,-0.32
2023-02-26T04:19:03.759Z,-0.34
2023-02-26T04:21:30.185Z,-0.39
2023-02-26T04:23:56.656Z,-0.40
2023-02-26T04:26:23.320Z,-0.47
2023-02-26T04:28:49.800Z,-0.56
2023-02-26T04:31:17.693Z,-0.58
2023-02-26T04:33:44.350Z,-0.62
2023-02-26T04:36:10.741Z,-0.60
2023-02-26T04:38:37.089Z,-0.68
2023-02-26T04:41:03.542Z,-0.67
2023-02-26T04:43:29.946Z,-0.71
2023-02-26T04:45:56.405Z,-0.72
2023-02-26T04:48:23.253Z,-0.68
2023-02-26T04:50:49.679Z,-0.67
2023-02-26T04:53:16.211Z,-0.76
2023-02-26T04:55:42.615Z,-0.74
2023-02-26T04:58:09.753Z,-0.77
2023-02-26T05:00:36.369Z,-0.79
2023-02-26T05:03:04.295Z,-0.78
2023-02-26T05:05:30.794Z,-0.79
2023-02-26T05:07:57.331Z,-0.82
2023-02-26T05:10:24.927Z,-0.76
2023-02-26T05:12:52.879Z,-0.90
2023-02-26T05:15:19.885Z,-0.92
2023-02-26T05:17:46.588Z,-0.95
2023-02-26T05:20:13.106Z,-0.95
2023-02-26T05:22:39.739Z,-1.04
2023-02-26T05:25:07.588Z,-1.01
2023-02-26T05:27:34.383Z,-1.04
2023-02-26T05:30:00.797Z,-1.08
2023-02-26T05:32:27.315Z,-1.11
2023-02-26T05:34:53.773Z,-1.18
2023-02-26T05:37:20.154Z,-1.22
2023-02-26T05:39:46.599Z,-1.19
2023-02-26T05:42:13.048Z,-1.17
2023-02-26T05:44:39.489Z,-1.25
2023-02-26T05:47:08.489Z,-1.25
2023-02-26T05:49:35.012Z,-1.30
2023-02-26T05:52:01.663Z,-1.26
2023-02-26T05:54:28.055Z,-1.26
2023-02-26T05:56:57.117Z,-1.32
2023-02-26T05:59:23.864Z,-1.28
2023-02-26T06:01:51.740Z,-1.31
2023-02-26T06:04:18.111Z,-1.32
2023-02-26T06:06:44.560Z,-1.39
2023-02-26T06:09:10.959Z,-1.38
2023-02-26T06:11:37.610Z,-1.45
2023-02-26T06:14:04.116Z,-1.36
2023-02-26T06:16:30.592Z,-1.39
2023-02-26T06:18:56.907Z,-1.41
2023-02-26T06:21:23.296Z,-1.46
2023-02-26T06:23:49.907Z,-1.47
2023-02-26T06:26:16.757Z,-1.54
2023-02-26T06:28:43.178Z,-1.52
2023-02-26T06:31:09.702Z,-1.49
2023-02-26T06:33:36.071Z,-1.44
2023-02-26T06:36:02.765Z,-1.41
2023-02-26T06:38:29.467Z,-1.36
2023-02-26T06:40:56.107Z,-1.33
2023-02-26T06:43:22.739Z,-1.32
2023-02-26T06:45:49.681Z,-1.30
2023-02-26T06:48:16.443Z,-1.29
2023-02-26T06:50:42.819Z,-1.29
2023-02-26T06:53:09.318Z,-1.26
2023-02-26T06:55:35.720Z,-1.10
2023-02-26T06:58:02.275Z,-1.03
2023-02-26T07:00:28.704Z,-1.00
2023-02-26T07:02:55.112Z,-0.94
2023-02-26T07:05:21.720Z,-0.87
2023-02-26T07:07:48.213Z,-0.74
2023-02-26T07:10:14.893Z,-0.60
2023-02-26T07:12:41.538Z,-0.47
2023-02-26T07:15:09.304Z,-0.26
2023-02-26T07:17:35.677Z,-0.17
2023-02-26T07:20:02.191Z,-0.02
2023-02-26T07:22:28.579Z,0.25
2023-02-26T07:24:55.138Z,0.45
2023-02-26T07:27:21.539Z,0.61
2023-02-26T07:29:47.974Z,0.88
2023-02-26T07:32:14.420Z,1.16
2023-02-26T07:34:41.034Z,1.20
2023-02-26T07:37:07.601Z,1.54
2023-02-26T07:39:33.942Z,1.51
2023-02-26T07:42:00.569Z,1.85
2023-02-26T07:44:27.957Z,1.89
2023-02-26T07:46:54.426Z,2.20
2023-02-26T07:49:21.124Z,2.29
2023-02-26T07:51:47.605Z,2.25
2023-02-26T07:54:15.760Z,2.70
2023-02-26T07:56:43.235Z,2.87
2023-02-26T07:59:10.543Z,3.02
2023-02-26T08:01:37.526Z,2.97
2023-02-26T08:04:04.404Z,2.96
2023-02-26T08:06:30.853Z,3.07
2023-02-26T08:08:57.517Z,3.52
2023-02-26T08:11:25.028Z,3.83
2023-02-26T08:13:52.706Z,3.81
2023-02-26T08:16:19.576Z,4.08
2023-02-26T08:18:46.043Z,3.93
2023-02-26T08:21:12.418Z,4.30
2023-02-26T08:23:39.032Z,4.33
2023-02-26T08:26:08.353Z,4.52
2023-02-26T08:28:35.608Z,4.48
2023-02-26T08:31:02.536Z,4.75
2023-02-26T08:33:29.578Z,4.62
2023-02-26T08:35:56.132Z,5.00
2023-02-26T08:38:22.462Z,5.21
2023-02-26T08:40:49.816Z,5.11
2023-02-26T08:43:16.247Z,4.95
2023-02-26T08:45:42.796Z,5.19
2023-02-26T08:48:12.114Z,5.65
2023-02-26T08:50:38.779Z,6.03
2023-02-26T08:53:05.259Z,6.12
2023-02-26T08:55:34.001Z,6.56
2023-02-26T08:58:00.338Z,6.82
2023-02-26T09:00:26.896Z,6.70
2023-02-26T09:02:53.822Z,6.77
2023-02-26T09:05:20.276Z,6.32
2023-02-26T09:07:46.843Z,6.82
2023-02-26T09:10:14.010Z,7.34
2023-02-26T09:12:40.961Z,7.47
2023-02-26T09:15:09.447Z,7.76
2023-02-26T09:17:36.614Z,7.96
2023-02-26T09:20:04.600Z,7.40
2023-02-26T09:22:31.095Z,7.16
2023-02-26T09:24:57.542Z,7.40
2023-02-26T09:27:23.952Z,7.32
2023-02-26T09:29:50.689Z,7.73
2023-02-26T09:32:17.241Z,8.33
2023-02-26T09:34:43.746Z,8.40
2023-02-26T09:37:10.745Z,8.07
2023-02-26T09:39:37.340Z,8.22
2023-02-26T09:42:19.135Z,9.17
2023-02-26T09:44:46.056Z,9.12
2023-02-26T09:47:21.455Z,9.30
2023-02-26T09:49:47.876Z,9.28
2023-02-26T09:52:35.721Z,9.27
2023-02-26T09:55:29.984Z,8.61
2023-02-26T09:58:02.625Z,9.02
2023-02-26T10:00:38.165Z,10.13
2023-02-26T10:03:29.364Z,10.35
2023-02-26T10:06:13.325Z,10.39
2023-02-26T10:08:55.697Z,10.09
2023-02-26T10:11:26.857Z,9.17
2023-02-26T10:14:05.895Z,9.24
2023-02-26T10:16:38.065Z,9.20
2023-02-26T10:19:14.616Z,8.65
2023-02-26T10:21:49.302Z,9.89
2023-02-26T10:24:21.368Z,10.46
2023-02-26T10:27:15.212Z,10.47
2023-02-26T10:30:00.376Z,11.09
2023-02-26T10:32:34.086Z,11.80
2023-02-26T10:35:04.326Z,11.81
2023-02-26T10:37:48.952Z,12.37
2023-02-26T10:40:18.746Z,12.01
2023-02-26T10:42:54.940Z,11.41
2023-02-26T10:45:49.163Z,11.70
2023-02-26T10:48:27.200Z,11.40
2023-02-26T10:50:57.528Z,11.55
2023-02-26T10:53:26.655Z,11.80
2023-02-26T10:56:04.137Z,12.05
2023-02-26T10:58:30.555Z,12.50
2023-02-26T11:00:57.297Z,12.22
2023-02-26T11:03:41.720Z,12.92
2023-02-26T11:06:12.667Z,12.65
2023-02-26T11:08:45.863Z,12.75
2023-02-26T11:11:43.233Z,13.05
2023-02-26T11:14:10.186Z,13.45
2023-02-26T11:16:42.914Z,13.96
2023-02-26T11:19:13.768Z,13.33
2023-02-26T11:21:43.270Z,12.59
2023-02-26T11:24:37.637Z,11.47
2023-02-26T11:27:10.800Z,11.86
2023-02-26T11:29:39.862Z,12.96
2023-02-26T11:32:11.486Z,13.01
2023-02-26T11:34:37.916Z,12.91
2023-02-26T11:37:04.688Z,13.84
2023-02-26T11:39:35.935Z,13.58
2023-02-26T11:42:03.827Z,14.32
2023-02-26T11:44:50.801Z,14.35
2023-02-26T11:47:23.173Z,14.47
2023-02-26T11:49:55.501Z,13.44
2023-02-26T11:52:40.514Z,14.52
2023-02-26T11:55:32.819Z,14.52
2023-02-26T11:57:59.284Z,15.10
2023-02-26T12:00:37.264Z,15.35
2023-02-26T12:03:07.382Z,14.64
2023-02-26T12:05:35.666Z,14.91
2023-02-26T12:08:07.583Z,14.22
2023-02-26T12:10:48.959Z,14.33
2023-02-26T12:13:41.860Z,14.11
2023-02-26T12:16:26.736Z,14.61
2023-02-26T12:19:01.511Z,15.49
2023-02-26T12:21:50.566Z,13.92
2023-02-26T12:24:35.733Z,14.09
2023-02-26T12:27:21.238Z,14.21
2023-02-26T12:29:47.567Z,14.84
2023-02-26T12:32:56.499Z,14.53
2023-02-26T12:35:25.931Z,14.82
2023-02-26T12:38:18.107Z,14.10
2023-02-26T12:41:01.525Z,14.84
2023-02-26T12:43:37.686Z,15.38
2023-02-26T12:46:37.683Z,14.55
2023-02-26T12:49:25.865Z,15.10
2023-02-26T12:52:10.755Z,14.39
2023-02-26T12:54:55.910Z,15.95
2023-02-26T12:57:33.419Z,15.28
2023-02-26T13:00:02.786Z,16.24
2023-02-26T13:02:50.409Z,15.32
2023-02-26T13:05:33.772Z,16.22
2023-02-26T13:08:25.328Z,14.65
2023-02-26T13:11:20.952Z,13.72
2023-02-26T13:14:18.177Z,13.87
2023-02-26T13:17:26.176Z,12.99
2023-02-26T13:19:58.352Z,13.25
2023-02-26T13:22:33.698Z,13.87
2023-02-26T13:25:17.898Z,15.82
2023-02-26T13:27:46.193Z,15.58
2023-02-26T13:30:21.873Z,15.77
2023-02-26T13:32:53.172Z,15.93
2023-02-26T13:35:26.928Z,16.03
2023-02-26T13:37:56.308Z,16.35
2023-02-26T13:40:46.268Z,16.73
2023-02-26T13:43:25.777Z,16.14
2023-02-26T13:46:16.833Z,16.00
2023-02-26T13:49:26.812Z,16.63
2023-02-26T13:51:54.463Z,16.35
2023-02-26T13:54:20.733Z,16.57
2023-02-26T13:56:47.092Z,16.12
2023-02-26T13:59:14.594Z,16.82
2023-02-26T14:01:53.145Z,16.33
2023-02-26T14:04:22.258Z,16.19
2023-02-26T14:06:52.490Z,16.14
2023-02-26T14:09:21.913Z,15.89
2023-02-26T14:12:01.330Z,17.27
2023-02-26T14:14:43.180Z,16.61
2023-02-26T14:17:09.640Z,16.30
2023-02-26T14:19:47.201Z,16.65
2023-02-26T14:22:19.651Z,17.39
2023-02-26T14:24:56.560Z,17.46
2023-02-26T14:27:32.935Z,16.76
2023-02-26T14:30:27.635Z,16.05
2023-02-26T14:33:02.828Z,16.84
2023-02-26T14:35:33.684Z,15.81
2023-02-26T14:38:25.399Z,15.21
2023-02-26T14:40:57.534Z,13.63
2023-02-26T14:43:53.622Z,13.34
2023-02-26T14:46:20.263Z,13.44
2023-02-26T14:48:47.587Z,14.58
2023-02-26T14:51:46.791Z,14.36
2023-02-26T14:54:34.185Z,14.14
2023-02-26T14:57:27.014Z,14.85
2023-02-26T15:00:03.433Z,14.34
2023-02-26T15:02:38.852Z,14.31
2023-02-26T15:05:11.608Z,15.36
2023-02-26T15:07:52.711Z,15.27
2023-02-26T15:10:44.223Z,15.39
2023-02-26T15:13:29.502Z,14.88
2023-02-26T15:16:18.476Z,14.29
2023-02-26T15:19:02.298Z,14.61
2023-02-26T15:21:44.284Z,14.18
2023-02-26T15:24:13.449Z,12.68
2023-02-26T15:26:46.570Z,12.50
2023-02-26T15:29:14.205Z,11.81
2023-02-26T15:31:52.771Z,13.61
2023-02-26T15:34:20.847Z,13.50
2023-02-26T15:36:52.748Z,13.60
2023-02-26T15:39:22.903Z,13.71
2023-02-26T15:41:52.128Z,13.12
2023-02-26T15:44:22.398Z,12.90
2023-02-26T15:46:57.521Z,13.46
2023-02-26T15:49:26.509Z,13.11
2023-02-26T15:51:53.715Z,12.34
2023-02-26T15:54:23.649Z,13.01
2023-02-26T15:56:51.789Z,12.37
2023-02-26T15:59:26.783Z,11.83
2023-02-26T16:01:57.010Z,11.77
2023-02-26T16:04:23.723Z,11.81
2023-02-26T16:06:54.630Z,13.08
2023-02-26T16:09:28.749Z,13.30
2023-02-26T16:11:58.021Z,12.83
2023-02-26T16:14:27.306Z,13.19
2023-02-26T16:16:56.191Z,13.19
2023-02-26T16:19:41.873Z,13.07
2023-02-26T16:22:39.682Z,13.13
2023-02-26T16:25:30.642Z,12.94
2023-02-26T16:28:00.571Z,12.07
2023-02-26T16:30:33.462Z,10.66
2023-02-26T16:33:00.130Z,10.22
2023-02-26T16:35:32.030Z,9.77
2023-02-26T16:37:58.356Z,9.39
2023-02-26T16:40:26.701Z,8.62
2023-02-26T16:43:26.202Z,8.24
2023-02-26T16:45:59.391Z,7.90
2023-02-26T16:48:28.338Z,7.65
2023-02-26T16:51:12.167Z,7.02
2023-02-26T16:53:42.961Z,7.08
2023-02-26T16:56:13.137Z,6.80
2023-02-26T16:58:39.838Z,6.28
2023-02-26T17:01:14.890Z,6.38
2023-02-26T17:03:41.709Z,6.26
2023-02-26T17:06:11.701Z,6.23
2023-02-26T17:08:58.049Z,5.92
2023-02-26T17:11:33.643Z,5.76
2023-02-26T17:14:14.690Z,5.70
2023-02-26T17:16:41.465Z,5.64
2023-02-26T17:19:07.943Z,5.69
2023-02-26T17:21:37.648Z,5.53
2023-02-26T17:24:04.248Z,5.52
2023-02-26T17:26:30.721Z,5.49
2023-02-26T17:28:57.492Z,5.39
2023-02-26T17:31:24.101Z,5.21
2023-02-26T17:33:50.754Z,5.19
2023-02-26T17:36:19.104Z,5.11
2023-02-26T17:38:45.812Z,5.06
2023-02-26T17:41:15.225Z,4.98
2023-02-26T17:43:41.815Z,4.99
2023-02-26T17:46:11.651Z,5.00
2023-02-26T17:48:39.915Z,5.07
2023-02-26T17:51:06.437Z,4.90
2023-02-26T17:53:32.846Z,4.91
2023-02-26T17:55:59.567Z,4.80
2023-02-26T17:58:33.586Z,4.77
2023-02-26T18:01:05.344Z,4.77
2023-02-26T18:03:31.986Z,4.62
2023-02-26T18:05:58.878Z,4.73
2023-02-26T18:08:26.995Z,4.65
2023-02-26T18:10:55.141Z,4.52
2023-02-26T18:13:22.113Z,4.54
2023-02-26T18:15:49.918Z,4.54
2023-02-26T18:18:16.927Z,4.44
2023-02-26T18:20:44.857Z,4.30
2023-02-26T18:23:12.670Z,4.32
2023-02-26T18:25:40.478Z,4.41
2023-02-26T18:28:11.181Z,4.14
2023-02-26T18:30:37.650Z,4.13
2023-02-26T18:33:04.314Z,4.18
2023-02-26T18:35:31.690Z,4.13
2023-02-26T18:37:58.410Z,4.05
2023-02-26T18:40:26.600Z,4.09
2023-02-26T18:42:53.688Z,4.02
2023-02-26T18:45:20.960Z,3.91
2023-02-26T18:47:48.285Z,4.02
2023-02-26T18:50:17.120Z,3.91
2023-02-26T18:52:44.396Z,3.92
2023-02-26T18:55:12.022Z,3.84
2023-02-26T18:57:39.857Z,3.87
2023-02-26T19:00:08.799Z,3.87
2023-02-26T19:02:35.658Z,3.77
2023-02-26T19:05:02.459Z,3.56
2023-02-26T19:07:29.197Z,3.60
2023-02-26T19:09:57.919Z,3.54
2023-02-26T19:12:24.327Z,3.52
2023-02-26T19:14:50.752Z,3.40
2023-02-26T19:17:17.820Z,3.46
2023-02-26T19:19:44.551Z,3.39
2023-02-26T19:22:12.656Z,3.38
2023-02-26T19:24:39.918Z,3.41
2023-02-26T19:27:07.501Z,3.34
2023-02-26T19:29:34.002Z,3.35
2023-02-26T19:32:01.819Z,3.47
2023-02-26T19:34:28.500Z,3.43
2023-02-26T19:36:55.058Z,3.40
2023-02-26T19:39:22.138Z,3.19
2023-02-26T19:41:49.456Z,3.17
2023-02-26T19:44:17.153Z,3.13
2023-02-26T19:46:43.705Z,3.09
2023-02-26T19:49:10.241Z,3.01
2023-02-26T19:51:36.998Z,2.96
2023-02-26T19:54:03.954Z,2.98
2023-02-26T19:56:30.437Z,3.06
2023-02-26T19:58:57.096Z,3.13
2023-02-26T20:01:24.214Z,3.23
2023-02-26T20:03:50.805Z,3.04
2023-02-26T20:06:18.739Z,3.00
2023-02-26T20:08:45.080Z,2.97
2023-02-26T20:11:11.602Z,3.00
2023-02-26T20:13:38.320Z,2.99
2023-02-26T20:16:07.363Z,2.82
2023-02-26T20:18:34.336Z,2.84
2023-02-26T20:21:07.203Z,2.69
2023-02-26T20:23:34.752Z,2.60
2023-02-26T20:26:01.938Z,2.49
2023-02-26T20:28:28.497Z,2.44
2023-02-26T20:30:54.936Z,2.43
2023-02-26T20:33:21.439Z,2.26
2023-02-26T20:35:48.279Z,2.28
2023-02-26T20:38:19.812Z,2.24
2023-02-26T20:40:48.268Z,2.24
2023-02-26T20:43:15.799Z,2.01
2023-02-26T20:45:42.570Z,1.97
2023-02-26T20:48:09.538Z,1.90
2023-02-26T20:50:36.751Z,1.87
2023-02-26T20:53:07.317Z,1.74
2023-02-26T20:55:34.777Z,1.76
2023-02-26T20:58:01.433Z,1.68
2023-02-26T21:00:28.250Z,1.60
2023-02-26T21:02:54.862Z,1.58
2023-02-26T21:05:21.674Z,1.52
2023-02-26T21:07:48.634Z,1.45
2023-02-26T21:10:17.302Z,1.35
2023-02-26T21:12:44.097Z,1.24
2023-02-26T21:15:12.066Z,1.33
2023-02-26T21:17:43.867Z,1.24
2023-02-26T21:20:12.216Z,1.18
2023-02-26T21:22:39.461Z,1.15
2023-02-26T21:25:08.222Z,1.12
2023-02-26T21:27:35.365Z,1.07
2023-02-26T21:30:02.393Z,0.96
2023-02-26T21:32:28.772Z,0.98
2023-02-26T21:34:55.225Z,0.95
2023-02-26T21:37:21.563Z,0.98
2023-02-26T21:39:47.965Z,0.96
2023-02-26T21:42:14.347Z,0.83
2023-02-26T21:44:40.943Z,0.78
2023-02-26T21:47:07.370Z,0.71
2023-02-26T21:49:33.811Z,0.68
2023-02-26T21:52:02.171Z,0.70
2023-02-26T21:54:29.204Z,0.65
2023-02-26T21:56:55.789Z,0.65
2023-02-26T21:59:23.499Z,0.71
2023-02-26T22:01:51.147Z,0.68
2023-02-26T22:04:18.462Z,0.62
2023-02-26T22:06:45.269Z,0.56
2023-02-26T22:09:12.879Z,0.60
2023-02-26T22:11:39.274Z,0.61
2023-02-26T22:14:05.932Z,0.58
2023-02-26T22:16:32.653Z,0.61
2023-02-26T22:18:59.368Z,0.65
2023-02-26T22:21:26.294Z,0.73
2023-02-26T22:23:52.845Z,0.72
2023-02-26T22:26:19.267Z,0.72
2023-02-26T22:28:45.798Z,0.63
2023-02-26T22:31:12.383Z,0.63
2023-02-26T22:33:38.818Z,0.67
2023-02-26T22:36:05.503Z,0.65
2023-02-26T22:38:31.943Z,0.62
2023-02-26T22:40:58.249Z,0.60
2023-02-26T22:43:24.653Z,0.42
2023-02-26T22:45:51.017Z,0.48
2023-02-26T22:48:17.588Z,0.34
2023-02-26T22:50:44.264Z,0.37
2023-02-26T22:53:10.742Z,0.35
2023-02-26T22:55:37.129Z,0.31
2023-02-26T22:58:03.612Z,0.36
2023-02-26T23:00:30.133Z,0.30
2023-02-26T23:02:56.474Z,0.24
2023-02-26T23:05:22.869Z,0.22
2023-02-26T23:07:49.233Z,0.17
2023-02-26T23:10:17.819Z,0.23
2023-02-26T23:12:45.673Z,0.20
2023-02-26T23:15:12.731Z,0.27
2023-02-26T23:17:39.172Z,0.32
2023-02-26T23:20:07.185Z,0.37
2023-02-26T23:22:33.489Z,0.30
2023-02-26T23:24:59.843Z,0.37
2023-02-26T23:27:26.245Z,0.44
2023-02-26T23:29:52.595Z,0.45
2023-02-26T23:32:19.055Z,0.40
2023-02-26T23:34:45.447Z,0.40
2023-02-26T23:37:11.811Z,0.42
2023-02-26T23:39:38.169Z,0.45
2023-02-26T23:42:04.644Z,0.46
2023-02-26T23:44:31.033Z,0.49
2023-02-26T23:46:57.357Z,0.44
2023-02-26T23:49:23.716Z,0.44
2023-02-26T23:51:50.120Z,0.39
2023-02-26T23:54:16.527Z,0.34
2023-02-26T23:56:42.913Z,0.32
2023-02-26T23:59:09.421Z,0.26
